createdAt,value
2018-03-30T00:01:53.722Z,75.88
2018-03-30T00:04:22.119Z,76.14
2018-03-30T00:06:50.455Z,76.90
2018-03-30T00:09:30.856Z,77.09
2018-03-30T00:11:59.189Z,77.29
2018-03-30T00:14:27.545Z,77.18
2018-03-30T00:16:55.966Z,76.98
2018-03-30T00:19:24.270Z,76.39
2018-03-30T00:21:52.617Z,76.04
2018-03-30T00:24:20.935Z,76.35
2018-03-30T00:26:49.351Z,76.35
2018-03-30T00:29:17.731Z,77.41
2018-03-30T00:31:46.112Z,77.98
2018-03-30T00:34:14.524Z,77.24
2018-03-30T00:36:42.913Z,76.83
2018-03-30T00:39:11.206Z,77.83
2018-03-30T00:41:39.519Z,78.58
2018-03-30T00:44:07.838Z,79.42
2018-03-30T00:46:36.138Z,79.22
2018-03-30T00:49:04.492Z,78.39
2018-03-30T00:51:33.863Z,78.45
2018-03-30T00:54:02.245Z,78.21
2018-03-30T00:56:30.622Z,77.68
2018-03-30T00:58:58.999Z,78.75
2018-03-30T01:01:27.371Z,79.42
2018-03-30T01:03:55.677Z,79.68
2018-03-30T01:06:23.991Z,79.05
2018-03-30T01:08:52.305Z,78.47
2018-03-30T01:11:20.612Z,77.59
2018-03-30T01:13:48.946Z,78.31
2018-03-30T01:16:17.273Z,79.06
2018-03-30T01:18:45.573Z,78.35
2018-03-30T01:21:13.991Z,78.69
2018-03-30T01:23:42.306Z,79.52
2018-03-30T01:26:10.600Z,80.27
2018-03-30T01:28:38.906Z,80.95
2018-03-30T01:31:07.232Z,80.50
2018-03-30T01:33:35.545Z,79.91
2018-03-30T01:36:03.958Z,79.09
2018-03-30T01:38:32.341Z,78.84
2018-03-30T01:41:00.826Z,78.44
2018-03-30T01:43:29.223Z,78.20
2018-03-30T01:45:57.571Z,79.14
2018-03-30T01:48:26.004Z,79.00
2018-03-30T01:50:54.539Z,80.02
2018-03-30T01:53:22.918Z,81.12
2018-03-30T01:55:51.227Z,81.29
2018-03-30T01:58:19.533Z,80.48
2018-03-30T02:00:47.831Z,80.32
2018-03-30T02:03:16.211Z,79.85
2018-03-30T02:05:44.525Z,78.78
2018-03-30T02:08:12.862Z,78.50
2018-03-30T02:10:41.246Z,78.61
2018-03-30T02:13:09.633Z,78.63
2018-03-30T02:15:37.937Z,78.86
2018-03-30T02:18:06.246Z,79.89
2018-03-30T02:20:34.562Z,79.52
2018-03-30T02:23:02.876Z,79.27
2018-03-30T02:25:31.314Z,78.69
2018-03-30T02:27:59.623Z,79.54
2018-03-30T02:30:27.959Z,80.08
2018-03-30T02:32:56.402Z,80.64
2018-03-30T02:35:24.747Z,80.13
2018-03-30T02:37:53.063Z,79.63
2018-03-30T02:40:21.486Z,79.32
2018-03-30T02:42:49.780Z,79.81
2018-03-30T02:45:18.147Z,80.13
2018-03-30T02:47:46.478Z,80.70
2018-03-30T02:50:14.816Z,80.86
2018-03-30T02:52:43.125Z,80.19
2018-03-30T02:55:11.651Z,79.53
2018-03-30T02:57:40.084Z,79.56
2018-03-30T03:00:08.355Z,79.77
2018-03-30T03:02:36.756Z,80.02
2018-03-30T03:05:05.069Z,79.45
2018-03-30T03:07:33.452Z,79.15
2018-03-30T03:10:01.764Z,79.18
2018-03-30T03:12:30.091Z,79.20
2018-03-30T03:14:58.479Z,79.29
2018-03-30T03:17:26.786Z,79.36
2018-03-30T03:19:55.092Z,79.47
2018-03-30T03:22:23.423Z,79.39
2018-03-30T03:24:51.728Z,79.35
2018-03-30T03:27:20.082Z,79.26
2018-03-30T03:29:48.424Z,78.88
2018-03-30T03:32:16.734Z,78.91
2018-03-30T03:34:45.050Z,79.02
2018-03-30T03:37:13.464Z,78.78
2018-03-30T03:39:41.839Z,78.64
2018-03-30T03:42:10.153Z,78.24
2018-03-30T03:44:38.499Z,77.83
2018-03-30T03:47:06.807Z,77.87
2018-03-30T03:49:35.146Z,77.70
2018-03-30T03:52:03.531Z,77.45
2018-03-30T03:54:31.906Z,77.61
2018-03-30T03:57:00.229Z,78.19
2018-03-30T03:59:28.662Z,78.57
2018-03-30T04:01:56.985Z,78.59
2018-03-30T04:04:25.332Z,79.51
2018-03-30T04:06:53.701Z,79.67
2018-03-30T04:09:22.080Z,79.11
2018-03-30T04:11:50.399Z,78.71
2018-03-30T04:14:18.735Z,78.59
2018-03-30T04:16:47.048Z,78.99
2018-03-30T04:19:15.369Z,78.85
2018-03-30T04:21:43.683Z,79.16
2018-03-30T04:24:11.999Z,78.72
2018-03-30T04:26:40.315Z,78.80
2018-03-30T04:29:08.699Z,78.78
2018-03-30T04:31:37.012Z,78.88
2018-03-30T04:34:05.331Z,78.50
2018-03-30T04:36:33.673Z,78.01
2018-03-30T04:39:02.001Z,77.50
2018-03-30T04:41:30.323Z,77.54
2018-03-30T04:43:59.164Z,77.87
2018-03-30T04:46:27.550Z,77.48
2018-03-30T04:48:56.384Z,77.34
2018-03-30T04:51:24.712Z,77.33
2018-03-30T04:53:53.075Z,77.71
2018-03-30T04:56:21.375Z,78.76
2018-03-30T04:58:49.723Z,78.42
2018-03-30T05:01:18.047Z,78.60
2018-03-30T05:03:46.399Z,78.52
2018-03-30T05:06:14.886Z,77.33
2018-03-30T05:08:43.259Z,76.95
2018-03-30T05:11:11.598Z,76.87
2018-03-30T05:13:40.018Z,76.67
2018-03-30T05:16:08.374Z,77.22
2018-03-30T05:18:36.698Z,77.58
2018-03-30T05:21:05.018Z,78.06
2018-03-30T05:23:33.433Z,78.71
2018-03-30T05:26:01.758Z,79.10
2018-03-30T05:28:31.117Z,77.85
2018-03-30T05:30:59.548Z,76.79
2018-03-30T05:33:27.879Z,77.62
2018-03-30T05:35:56.217Z,77.77
2018-03-30T05:38:24.623Z,77.72
2018-03-30T05:40:52.938Z,77.60
2018-03-30T05:43:21.315Z,78.04
2018-03-30T05:45:49.682Z,77.58
2018-03-30T05:48:18.015Z,77.91
2018-03-30T05:50:46.345Z,77.60
2018-03-30T05:53:14.687Z,77.61
2018-03-30T05:55:43.020Z,77.93
2018-03-30T05:58:11.438Z,77.63
2018-03-30T06:00:39.820Z,78.11
2018-03-30T06:03:08.171Z,78.14
2018-03-30T06:05:36.478Z,77.82
2018-03-30T06:08:04.920Z,77.59
2018-03-30T06:10:33.216Z,77.69
2018-03-30T06:13:01.535Z,77.66
2018-03-30T06:15:29.897Z,77.53
2018-03-30T06:17:58.219Z,77.22
2018-03-30T06:20:26.609Z,77.41
2018-03-30T06:22:55.029Z,77.08
2018-03-30T06:25:23.398Z,76.65
2018-03-30T06:27:51.739Z,76.08
2018-03-30T06:30:20.064Z,75.37
2018-03-30T06:32:48.442Z,74.24
2018-03-30T06:35:16.814Z,74.05
2018-03-30T06:37:45.214Z,73.57
2018-03-30T06:40:13.548Z,73.72
2018-03-30T06:42:41.937Z,73.30
2018-03-30T06:45:10.338Z,73.20
2018-03-30T06:47:38.653Z,72.69
2018-03-30T06:50:06.981Z,72.60
2018-03-30T06:52:35.359Z,72.48
2018-03-30T06:55:03.688Z,72.32
2018-03-30T06:57:32.011Z,71.53
2018-03-30T07:00:00.398Z,71.33
2018-03-30T07:02:28.749Z,70.77
2018-03-30T07:04:57.071Z,69.92
2018-03-30T07:07:25.427Z,69.25
2018-03-30T07:09:53.747Z,68.73
2018-03-30T07:12:22.073Z,69.38
2018-03-30T07:14:50.385Z,68.85
2018-03-30T07:17:18.890Z,68.87
2018-03-30T07:19:47.217Z,69.10
2018-03-30T07:22:15.594Z,68.34
2018-03-30T07:24:43.972Z,68.15
2018-03-30T07:27:12.348Z,68.05
2018-03-30T07:29:40.672Z,68.76
2018-03-30T07:32:09.003Z,68.24
2018-03-30T07:34:37.388Z,66.80
2018-03-30T07:37:05.712Z,66.17
2018-03-30T07:39:34.027Z,64.18
2018-03-30T07:42:02.369Z,63.20
2018-03-30T07:44:30.703Z,63.22
2018-03-30T07:46:59.014Z,63.48
2018-03-30T07:49:27.343Z,63.18
2018-03-30T07:51:55.647Z,62.65
2018-03-30T07:54:23.974Z,63.00
2018-03-30T07:56:52.293Z,62.64
2018-03-30T07:59:20.658Z,61.89
2018-03-30T08:01:49.035Z,61.62
2018-03-30T08:04:17.412Z,61.78
2018-03-30T08:06:45.728Z,61.44
2018-03-30T08:09:14.102Z,61.62
2018-03-30T08:11:42.540Z,61.01
2018-03-30T08:14:10.875Z,60.46
2018-03-30T08:16:39.208Z,60.35
2018-03-30T08:19:07.515Z,59.92
2018-03-30T08:21:35.858Z,60.07
2018-03-30T08:24:04.186Z,59.61
2018-03-30T08:26:32.511Z,60.27
2018-03-30T08:29:00.815Z,60.99
2018-03-30T08:31:29.201Z,61.66
2018-03-30T08:33:57.564Z,61.04
2018-03-30T08:36:25.851Z,61.31
2018-03-30T08:38:54.198Z,62.14
2018-03-30T08:41:22.578Z,62.42
2018-03-30T08:43:50.990Z,62.70
2018-03-30T08:46:19.329Z,62.76
2018-03-30T08:48:47.712Z,62.11
2018-03-30T08:51:16.091Z,62.40
2018-03-30T08:53:44.461Z,61.52
2018-03-30T08:56:12.809Z,61.92
2018-03-30T08:58:41.157Z,61.58
2018-03-30T09:01:09.443Z,61.63
2018-03-30T09:03:37.746Z,61.60
2018-03-30T09:06:06.159Z,61.21
2018-03-30T09:08:34.492Z,60.98
2018-03-30T09:11:02.790Z,58.98
2018-03-30T09:13:31.122Z,58.46
2018-03-30T09:15:59.433Z,57.71
2018-03-30T09:18:27.744Z,56.03
2018-03-30T09:20:56.069Z,55.10
2018-03-30T09:23:24.398Z,54.74
2018-03-30T09:25:52.703Z,53.60
2018-03-30T09:28:21.019Z,52.72
2018-03-30T09:30:49.339Z,52.35
2018-03-30T09:33:23.285Z,51.76
2018-03-30T09:35:51.710Z,51.16
2018-03-30T09:38:20.014Z,49.84
2018-03-30T09:40:48.324Z,49.68
2018-03-30T09:43:16.657Z,49.85
2018-03-30T09:45:44.979Z,50.17
2018-03-30T09:48:13.299Z,48.99
2018-03-30T09:50:41.711Z,47.63
2018-03-30T09:53:10.047Z,47.91
2018-03-30T09:55:38.361Z,48.26
2018-03-30T09:58:06.711Z,48.54
2018-03-30T10:00:35.024Z,48.60
2018-03-30T10:03:05.185Z,48.28
2018-03-30T10:05:33.586Z,47.56
2018-03-30T10:08:01.902Z,46.85
2018-03-30T10:10:30.234Z,46.69
2018-03-30T10:12:58.716Z,46.91
2018-03-30T10:15:27.094Z,46.31
2018-03-30T10:17:55.442Z,45.29
2018-03-30T10:20:23.760Z,45.32
2018-03-30T10:22:52.130Z,44.66
2018-03-30T10:25:20.507Z,44.13
2018-03-30T10:27:48.885Z,43.61
2018-03-30T10:30:17.226Z,45.04
2018-03-30T10:32:45.538Z,44.96
2018-03-30T10:35:13.907Z,43.47
2018-03-30T10:37:42.291Z,43.47
2018-03-30T10:40:10.622Z,43.58
2018-03-30T10:42:38.955Z,43.65
2018-03-30T10:45:07.300Z,44.97
2018-03-30T10:47:35.700Z,45.83
2018-03-30T10:50:04.022Z,45.20
2018-03-30T10:52:32.400Z,44.79
2018-03-30T10:55:00.777Z,44.05
2018-03-30T10:57:29.438Z,42.78
2018-03-30T10:59:57.761Z,42.76
2018-03-30T11:02:26.091Z,42.41
2018-03-30T11:04:54.496Z,42.64
2018-03-30T11:07:22.798Z,42.88
2018-03-30T11:09:51.143Z,43.45
2018-03-30T11:12:19.451Z,41.61
2018-03-30T11:14:47.771Z,42.44
2018-03-30T11:17:16.155Z,41.29
2018-03-30T11:19:44.562Z,40.59
2018-03-30T11:22:12.920Z,39.21
2018-03-30T11:24:41.325Z,36.14
2018-03-30T11:27:09.655Z,36.33
2018-03-30T11:29:37.986Z,37.00
2018-03-30T11:32:06.420Z,36.43
2018-03-30T11:34:34.796Z,36.08
2018-03-30T11:37:03.109Z,36.63
2018-03-30T11:39:31.427Z,36.01
2018-03-30T11:41:59.783Z,35.07
2018-03-30T11:44:28.125Z,34.03
2018-03-30T11:46:56.475Z,33.48
2018-03-30T11:49:24.762Z,34.46
2018-03-30T11:51:53.078Z,34.96
2018-03-30T11:54:21.395Z,34.92
2018-03-30T11:56:49.792Z,35.03
2018-03-30T11:59:18.171Z,34.06
2018-03-30T12:01:46.548Z,34.15
2018-03-30T12:04:14.882Z,31.26
2018-03-30T12:06:43.306Z,30.52
2018-03-30T12:09:11.728Z,32.51
2018-03-30T12:11:40.064Z,33.18
2018-03-30T12:14:08.441Z,32.97
2018-03-30T12:16:36.818Z,32.83
2018-03-30T12:19:05.147Z,30.16
2018-03-30T12:21:33.479Z,29.30
2018-03-30T12:24:01.955Z,28.25
2018-03-30T12:26:30.262Z,26.12
2018-03-30T12:28:58.619Z,23.45
2018-03-30T12:31:26.958Z,23.27
2018-03-30T12:33:55.267Z,23.54
2018-03-30T12:36:23.584Z,26.41
2018-03-30T12:38:52.735Z,27.43
2018-03-30T12:41:21.066Z,28.39
2018-03-30T12:43:49.380Z,29.02
2018-03-30T12:46:17.725Z,30.20
2018-03-30T12:48:46.036Z,30.69
2018-03-30T12:51:14.379Z,29.98
2018-03-30T12:53:42.795Z,29.65
2018-03-30T12:56:11.175Z,28.25
2018-03-30T12:58:39.487Z,27.10
2018-03-30T13:01:07.789Z,25.11
2018-03-30T13:03:36.139Z,23.79
2018-03-30T13:06:04.491Z,22.53
2018-03-30T13:08:32.863Z,23.83
2018-03-30T13:11:01.383Z,25.13
2018-03-30T13:13:29.731Z,24.52
2018-03-30T13:15:58.046Z,24.15
2018-03-30T13:18:26.374Z,24.35
2018-03-30T13:20:54.691Z,23.27
2018-03-30T13:23:23.024Z,23.21
2018-03-30T13:25:51.374Z,23.01
2018-03-30T13:28:19.685Z,22.08
2018-03-30T13:30:48.078Z,22.17
2018-03-30T13:33:16.395Z,21.68
2018-03-30T13:35:44.717Z,22.23
2018-03-30T13:38:13.121Z,22.60
2018-03-30T13:40:41.476Z,22.01
2018-03-30T13:43:09.803Z,20.97
2018-03-30T13:45:38.131Z,19.69
2018-03-30T13:48:06.463Z,20.71
2018-03-30T13:53:38.158Z,21.11
2018-03-30T13:56:07.974Z,21.37
2018-03-30T13:58:36.394Z,21.30
2018-03-30T14:01:06.536Z,22.19
2018-03-30T14:03:40.759Z,23.58
2018-03-30T14:06:24.849Z,24.04
2018-03-30T14:08:54.060Z,23.59
2018-03-30T14:11:36.573Z,23.89
2018-03-30T14:14:04.882Z,23.45
2018-03-30T14:16:33.229Z,22.79
2018-03-30T14:19:15.839Z,22.50
2018-03-30T14:21:50.675Z,20.78
2018-03-30T14:24:18.991Z,21.45
2018-03-30T14:26:54.006Z,21.17
2018-03-30T14:29:25.190Z,21.76
2018-03-30T14:31:53.530Z,22.56
2018-03-30T14:34:22.686Z,24.29
2018-03-30T14:37:07.462Z,23.07
2018-03-30T14:39:50.595Z,22.89
2018-03-30T14:42:22.411Z,24.07
2018-03-30T14:44:54.242Z,21.95
2018-03-30T14:47:24.425Z,22.04
2018-03-30T14:53:09.748Z,22.71
2018-03-30T14:55:42.427Z,24.25
2018-03-30T14:58:14.017Z,25.52
2018-03-30T15:00:53.126Z,23.72
2018-03-30T15:03:22.103Z,23.15
2018-03-30T15:05:53.075Z,21.90
2018-03-30T15:11:21.066Z,25.30
2018-03-30T15:13:54.838Z,22.79
2018-03-30T15:19:20.611Z,22.94
2018-03-30T15:22:05.703Z,22.76
2018-03-30T15:24:37.419Z,23.52
2018-03-30T15:27:24.433Z,23.76
2018-03-30T15:30:08.419Z,24.72
2018-03-30T15:32:40.370Z,24.20
2018-03-30T15:35:09.630Z,23.66
2018-03-30T15:37:37.975Z,24.14
2018-03-30T15:40:09.144Z,25.19
2018-03-30T15:42:38.288Z,23.90
2018-03-30T15:45:06.716Z,23.76
2018-03-30T15:47:35.101Z,23.34
2018-03-30T15:50:03.424Z,24.00
2018-03-30T15:52:31.750Z,25.08
2018-03-30T15:55:00.100Z,26.09
2018-03-30T15:57:28.413Z,24.60
2018-03-30T15:59:57.367Z,25.98
2018-03-30T16:02:25.685Z,25.18
2018-03-30T16:04:54.053Z,24.38
2018-03-30T16:07:22.425Z,24.67
2018-03-30T16:10:01.719Z,25.24
2018-03-30T16:12:31.811Z,25.94
2018-03-30T16:15:00.143Z,25.55
2018-03-30T16:17:28.463Z,26.86
2018-03-30T16:19:56.458Z,27.56
2018-03-30T16:22:24.332Z,28.72
2018-03-30T16:24:52.098Z,26.93
2018-03-30T16:27:19.904Z,27.53
2018-03-30T16:29:47.688Z,29.40
2018-03-30T16:32:15.502Z,29.68
2018-03-30T16:34:43.363Z,31.59
2018-03-30T16:37:11.261Z,32.38
2018-03-30T16:39:39.047Z,32.62
2018-03-30T16:42:06.850Z,33.59
2018-03-30T16:44:35.675Z,33.84
2018-03-30T16:47:03.620Z,34.42
2018-03-30T16:49:31.648Z,39.73
2018-03-30T16:51:59.440Z,40.14
2018-03-30T16:54:27.237Z,40.73
2018-03-30T16:56:55.073Z,41.67
2018-03-30T16:59:22.829Z,43.58
2018-03-30T17:01:50.609Z,45.53
2018-03-30T17:04:18.394Z,46.66
2018-03-30T17:06:46.174Z,47.45
2018-03-30T17:09:13.981Z,47.52
2018-03-30T17:11:41.800Z,48.33
2018-03-30T17:14:09.614Z,49.15
2018-03-30T17:16:37.494Z,49.50
2018-03-30T17:19:05.292Z,49.75
2018-03-30T17:21:33.129Z,50.30
2018-03-30T17:24:00.995Z,50.55
2018-03-30T17:26:28.785Z,50.96
2018-03-30T17:28:56.591Z,51.42
2018-03-30T17:31:24.371Z,51.37
2018-03-30T17:33:52.248Z,52.08
2018-03-30T17:36:20.139Z,51.81
2018-03-30T17:38:47.926Z,52.54
2018-03-30T17:41:15.740Z,53.26
2018-03-30T17:43:43.527Z,52.78
2018-03-30T17:46:11.300Z,53.01
2018-03-30T17:48:39.180Z,54.00
2018-03-30T17:51:06.961Z,54.83
2018-03-30T17:53:34.758Z,55.06
2018-03-30T17:56:02.654Z,55.33
2018-03-30T17:58:30.546Z,55.99
2018-03-30T18:00:58.373Z,56.50
2018-03-30T18:03:26.174Z,56.83
2018-03-30T18:05:53.954Z,56.96
2018-03-30T18:08:21.885Z,56.91
2018-03-30T18:10:49.651Z,57.59
2018-03-30T18:13:17.511Z,57.30
2018-03-30T18:15:45.308Z,58.41
2018-03-30T18:18:13.135Z,58.31
2018-03-30T18:20:40.931Z,58.30
2018-03-30T18:23:08.706Z,58.27
2018-03-30T18:25:36.563Z,59.38
2018-03-30T18:28:04.288Z,59.63
2018-03-30T18:30:32.153Z,60.08
2018-03-30T18:32:59.946Z,59.69
2018-03-30T18:35:27.739Z,59.74
2018-03-30T18:37:55.517Z,60.28
2018-03-30T18:40:23.302Z,60.46
2018-03-30T18:42:51.173Z,60.64
2018-03-30T18:45:18.999Z,60.88
2018-03-30T18:47:46.790Z,61.35
2018-03-30T18:50:14.578Z,61.46
2018-03-30T18:52:42.366Z,61.76
2018-03-30T18:55:10.141Z,61.44
2018-03-30T18:57:38.833Z,61.74
2018-03-30T19:00:06.595Z,61.55
2018-03-30T19:02:34.421Z,61.36
2018-03-30T19:05:02.280Z,61.51
2018-03-30T19:07:30.155Z,61.30
2018-03-30T19:09:58.010Z,61.47
2018-03-30T19:12:25.811Z,60.90
2018-03-30T19:14:53.578Z,61.50
2018-03-30T19:17:21.410Z,61.24
2018-03-30T19:19:49.319Z,61.08
2018-03-30T19:22:17.143Z,61.26
2018-03-30T19:24:45.018Z,61.28
2018-03-30T19:27:12.795Z,61.45
2018-03-30T19:29:40.575Z,61.12
2018-03-30T19:32:08.395Z,60.74
2018-03-30T19:34:36.171Z,60.97
2018-03-30T19:37:04.026Z,60.62
2018-03-30T19:39:31.898Z,60.84
2018-03-30T19:41:59.766Z,60.96
2018-03-30T19:44:27.637Z,61.04
2018-03-30T19:46:55.500Z,60.81
2018-03-30T19:49:23.292Z,60.38
2018-03-30T19:51:51.343Z,60.53
2018-03-30T19:54:19.143Z,60.57
2018-03-30T19:56:46.979Z,60.61
2018-03-30T19:59:14.779Z,60.74
2018-03-30T20:01:42.554Z,60.61
2018-03-30T20:04:10.354Z,60.71
2018-03-30T20:06:38.198Z,60.81
2018-03-30T20:09:05.996Z,60.95
2018-03-30T20:11:33.860Z,60.92
2018-03-30T20:14:01.672Z,61.46
2018-03-30T20:16:29.508Z,61.44
2018-03-30T20:18:57.363Z,61.52
2018-03-30T20:21:25.247Z,61.15
2018-03-30T20:23:53.048Z,61.15
2018-03-30T20:26:20.827Z,60.33
2018-03-30T20:28:48.722Z,59.50
2018-03-30T20:31:16.485Z,59.45
2018-03-30T20:33:44.340Z,59.87
2018-03-30T20:36:12.216Z,59.19
2018-03-30T20:38:40.008Z,58.84
2018-03-30T20:41:07.839Z,58.67
2018-03-30T20:43:35.646Z,58.55
2018-03-30T20:46:03.418Z,57.59
2018-03-30T20:48:31.216Z,58.31
2018-03-30T20:50:59.002Z,57.90
2018-03-30T20:53:26.824Z,58.40
2018-03-30T20:55:54.634Z,58.76
2018-03-30T20:58:22.613Z,59.34
2018-03-30T21:00:50.428Z,59.87
2018-03-30T21:03:18.235Z,60.41
2018-03-30T21:05:46.087Z,61.16
2018-03-30T21:08:13.879Z,61.74
2018-03-30T21:10:41.722Z,62.66
2018-03-30T21:13:09.498Z,62.57
2018-03-30T21:15:37.364Z,63.57
2018-03-30T21:18:05.129Z,64.53
2018-03-30T21:20:32.935Z,64.22
2018-03-30T21:23:00.739Z,64.62
2018-03-30T21:25:28.606Z,64.41
2018-03-30T21:27:56.407Z,64.65
2018-03-30T21:30:24.255Z,65.46
2018-03-30T21:32:52.030Z,65.32
2018-03-30T21:35:19.824Z,65.54
2018-03-30T21:37:47.598Z,66.20
2018-03-30T21:40:15.498Z,66.78
2018-03-30T21:42:43.368Z,66.99
2018-03-30T21:45:11.185Z,67.15
2018-03-30T21:47:38.957Z,67.67
2018-03-30T21:50:06.747Z,68.08
2018-03-30T21:52:34.647Z,67.56
2018-03-30T21:55:02.460Z,67.73
2018-03-30T21:57:30.319Z,68.18
2018-03-30T21:59:58.090Z,68.27
2018-03-30T22:02:25.896Z,67.94
2018-03-30T22:04:53.750Z,68.68
2018-03-30T22:07:21.588Z,68.59
2018-03-30T22:09:49.399Z,68.45
2018-03-30T22:12:17.182Z,68.02
2018-03-30T22:14:45.027Z,68.41
2018-03-30T22:17:12.831Z,68.53
2018-03-30T22:19:40.642Z,68.06
2018-03-30T22:22:08.512Z,67.61
2018-03-30T22:24:36.282Z,68.69
2018-03-30T22:27:04.084Z,67.94
2018-03-30T22:29:31.939Z,68.12
2018-03-30T22:31:59.773Z,67.35
2018-03-30T22:34:27.643Z,67.65
2018-03-30T22:36:55.441Z,67.39
2018-03-30T22:39:23.214Z,67.46
2018-03-30T22:41:51.006Z,67.71
2018-03-30T22:44:18.771Z,67.12
2018-03-30T22:46:46.632Z,67.03
2018-03-30T22:49:14.424Z,67.30
2018-03-30T22:51:42.231Z,67.68
2018-03-30T22:54:10.054Z,67.64
2018-03-30T22:56:37.928Z,68.00
2018-03-30T22:59:05.797Z,67.67
2018-03-30T23:01:33.582Z,67.43
2018-03-30T23:04:02.282Z,67.58
2018-03-30T23:06:30.111Z,67.35
2018-03-30T23:08:58.480Z,67.63
2018-03-30T23:11:26.248Z,68.13
2018-03-30T23:13:54.042Z,68.25
2018-03-30T23:16:21.896Z,68.51
2018-03-30T23:18:49.743Z,68.45
2018-03-30T23:21:18.115Z,68.22
2018-03-30T23:23:45.991Z,67.98
2018-03-30T23:26:13.783Z,68.50
2018-03-30T23:28:41.571Z,68.66
2018-03-30T23:31:09.504Z,68.34
2018-03-30T23:33:37.302Z,68.42
2018-03-30T23:36:05.070Z,67.89
2018-03-30T23:38:32.878Z,68.30
2018-03-30T23:41:00.758Z,68.95
2018-03-30T23:43:28.551Z,68.13
2018-03-30T23:45:56.375Z,68.38
2018-03-30T23:48:24.164Z,68.74
2018-03-30T23:50:51.958Z,68.90
2018-03-30T23:53:20.506Z,68.98
2018-03-30T23:55:48.276Z,68.53
2018-03-30T23:58:16.091Z,69.17
